Columbus Municipal Airport


Codes: KBAK/CLU
Name: Columbus Municipal Airport
City: Columbus
Country: United States
Elevation: 656 ft.
Wikipedia:

Photos at Columbus Municipal Airport


   Photos courtesy of SpottingLog. You can add your own sightings and photos by signing up for a free trial today.



No photos found.

Weather at Columbus Municipal Airport


Time (UTC)DescriptionTempratureWindCloud coverageVisibilityPressureHumidity
16-Jun-2024 12:00Broken Clouds16°C4 mph, SE84%10000m1015hPa80%
16-Jun-2024 15:00Scattered Clouds21°C7 mph, SE34%10000m1016hPa62%
16-Jun-2024 18:00Clear Sky29°C9 mph, S6%10000m1016hPa49%
16-Jun-2024 21:00Clear Sky31°C9 mph, S3%10000m1015hPa52%
17-Jun-2024 00:00Clear Sky28°C7 mph, S1%10000m1014hPa73%
17-Jun-2024 03:00Clear Sky23°C7 mph, S1%10000m1015hPa85%
17-Jun-2024 06:00Clear Sky22°C7 mph, S10%10000m1016hPa94%
17-Jun-2024 09:00Clear Sky20°C7 mph, S2%10000m1016hPa94%
17-Jun-2024 12:00Clear Sky22°C4 mph, S1%10000m1018hPa81%
17-Jun-2024 15:00Few Clouds28°C9 mph, S17%10000m1018hPa66%
17-Jun-2024 18:00Scattered Clouds30°C11 mph, S30%10000m1017hPa60%
17-Jun-2024 21:00Overcast Clouds32°C9 mph, S86%10000m1016hPa55%
18-Jun-2024 00:00Moderate Rain27°C4 mph, SW74%10000m1017hPa80%
18-Jun-2024 03:00Moderate Rain22°C4 mph, E100%10000m1018hPa91%
18-Jun-2024 06:00Light Rain23°C7 mph, E100%10000m1018hPa94%
18-Jun-2024 09:00Overcast Clouds21°C7 mph, SE100%10000m1018hPa93%
18-Jun-2024 12:00Overcast Clouds22°C4 mph, S100%10000m1020hPa92%
18-Jun-2024 15:00Light Rain26°C7 mph, S100%10000m1020hPa79%
18-Jun-2024 18:00Overcast Clouds31°C9 mph, S88%10000m1019hPa56%
18-Jun-2024 21:00Overcast Clouds31°C9 mph, S89%10000m1019hPa55%
19-Jun-2024 00:00Overcast Clouds26°C7 mph, SE95%10000m1019hPa79%
19-Jun-2024 03:00Overcast Clouds24°C4 mph, SW100%10000m1020hPa80%
19-Jun-2024 06:00Overcast Clouds23°C2 mph, SW100%10000m1020hPa85%
19-Jun-2024 09:00Overcast Clouds23°C2 mph, SW100%10000m1022hPa87%
19-Jun-2024 12:00Light Rain23°C2 mph, E100%10000m1023hPa88%
19-Jun-2024 15:00Light Rain26°C4 mph, SE100%10000m1024hPa78%
19-Jun-2024 18:00Light Rain32°C2 mph, S99%10000m1023hPa46%
19-Jun-2024 21:00Overcast Clouds32°C2 mph, SE96%10000m1022hPa48%
20-Jun-2024 00:00Overcast Clouds28°C4 mph, W97%10000m1022hPa67%
20-Jun-2024 03:00Overcast Clouds25°C2 mph, N99%10000m1023hPa70%
20-Jun-2024 06:00Overcast Clouds24°C4 mph, N96%10000m1023hPa78%
20-Jun-2024 09:00Broken Clouds22°C4 mph, E54%10000m1024hPa87%
20-Jun-2024 12:00Scattered Clouds24°C2 mph, E48%10000m1025hPa80%
20-Jun-2024 15:00Broken Clouds29°C4 mph, E75%10000m1025hPa62%
20-Jun-2024 18:00Overcast Clouds32°C4 mph, E87%10000m1024hPa51%
20-Jun-2024 21:00Overcast Clouds32°C4 mph, SE97%10000m1023hPa49%
21-Jun-2024 00:00Overcast Clouds30°C2 mph, S98%10000m1022hPa65%
21-Jun-2024 03:00Overcast Clouds26°C4 mph, S97%10000m1023hPa73%
21-Jun-2024 06:00Overcast Clouds25°C2 mph, NE98%10000m1022hPa72%
21-Jun-2024 09:00Overcast Clouds23°C0 mph, N93%10000m1022hPa82%